Time;durP1;ratioP1;P1;durP2;ratioP2;P2;SDS_P1;SDS_P2;PMS_P1;PMS_P2;Temp;Humidity;BMP_temperature;BMP_pressure;BME280_temperature;BME280_humidity;BME280_pressure;Samples;Min_cycle;Max_cycle;Signal;HPM_P1;HPM_P2
2021/04/01 00:00:07;;;;;;;3.53;3.23;;;;;;;11.57;63.77;100684.28;5031277;28;20188;-73
2021/04/01 00:02:33;;;;;;;3.97;3.57;;;;;;;11.39;63.65;100691.59;5031008;28;20176;-74
2021/04/01 00:04:58;;;;;;;3.30;3.00;;;;;;;11.52;64.29;100682.50;5031176;28;20191;-73
2021/04/01 00:07:23;;;;;;;3.73;2.87;;;;;;;11.48;64.50;100689.72;5031102;28;20176;-73
2021/04/01 00:09:49;;;;;;;4.20;3.50;;;;;;;11.38;64.69;100678.22;5029892;28;20651;-75
2021/04/01 00:12:15;;;;;;;3.73;3.43;;;;;;;11.38;64.59;100673.56;5034087;28;20525;-74
2021/04/01 00:14:41;;;;;;;4.93;4.50;;;;;;;11.12;64.87;100673.34;5032125;28;20174;-74
2021/04/01 00:17:07;;;;;;;3.57;3.37;;;;;;;11.22;65.03;100666.84;5030892;28;20172;-75
2021/04/01 00:19:33;;;;;;;4.60;4.20;;;;;;;11.08;65.23;100669.63;5030216;28;20329;-75
2021/04/01 00:21:58;;;;;;;4.13;3.70;;;;;;;11.16;64.07;100670.81;5031150;28;20175;-75
2021/04/01 00:24:23;;;;;;;3.67;3.33;;;;;;;11.10;65.46;100670.13;5030896;28;20172;-74
2021/04/01 00:26:49;;;;;;;4.00;3.70;;;;;;;10.86;66.02;100666.88;5030805;28;20570;-75
2021/04/01 00:29:14;;;;;;;3.97;3.50;;;;;;;10.69;66.53;100665.56;5030838;28;20726;-73
2021/04/01 00:31:39;;;;;;;3.83;3.53;;;;;;;10.77;65.71;100668.69;5030854;28;20687;-73
2021/04/01 00:34:05;;;;;;;4.80;4.07;;;;;;;10.90;64.90;100671.41;5029568;28;20705;-74
2021/04/01 00:36:30;;;;;;;4.47;4.07;;;;;;;10.85;65.29;100676.16;5030901;28;20176;-74
2021/04/01 00:38:55;;;;;;;3.43;3.13;;;;;;;11.01;64.85;100664.59;5030733;28;20238;-74
2021/04/01 00:41:21;;;;;;;4.17;3.80;;;;;;;11.21;65.78;100668.78;5030632;28;20222;-74
2021/04/01 00:43:46;;;;;;;4.73;4.33;;;;;;;11.28;64.92;100680.09;5030591;28;20180;-73
2021/04/01 00:46:12;;;;;;;3.63;3.33;;;;;;;11.32;65.25;100672.88;5030767;28;20211;-74
2021/04/01 00:48:37;;;;;;;3.83;3.53;;;;;;;11.17;66.04;100665.03;5030595;28;20960;-74
2021/04/01 00:51:03;;;;;;;3.47;3.13;;;;;;;11.05;66.39;100663.97;5030960;28;20175;-73
2021/04/01 00:53:28;;;;;;;4.10;3.60;;;;;;;11.06;65.58;100658.19;5030489;28;20221;-74
2021/04/01 00:55:54;;;;;;;4.80;4.40;;;;;;;11.06;65.22;100652.72;5030556;28;20186;-74
2021/04/01 00:58:20;;;;;;;3.43;3.10;;;;;;;11.12;65.63;100651.47;5030373;28;20274;-74
2021/04/01 01:00:49;;;;;;;3.47;3.17;;;;;;;10.95;65.90;100654.06;5030463;28;20175;-74
2021/04/01 01:03:15;;;;;;;3.70;3.40;;;;;;;10.83;66.37;100645.59;5030709;28;20180;-74
2021/04/01 01:05:40;;;;;;;5.13;3.30;;;;;;;10.82;65.59;100647.53;5029168;28;20184;-74
2021/04/01 01:08:06;;;;;;;3.77;3.40;;;;;;;10.61;67.18;100649.09;5030395;28;20186;-74
2021/04/01 01:10:32;;;;;;;5.33;3.60;;;;;;;10.65;66.71;100650.91;5030414;28;20187;-74
2021/04/01 01:12:58;;;;;;;3.63;3.17;;;;;;;10.78;66.48;100645.72;5030210;28;20643;-74
2021/04/01 01:15:24;;;;;;;3.80;3.50;;;;;;;11.02;66.70;100644.34;5030700;28;20242;-73
2021/04/01 01:17:51;;;;;;;4.33;4.00;;;;;;;11.16;66.32;100641.56;5030600;28;20180;-74
2021/04/01 01:20:19;;;;;;;3.37;3.07;;;;;;;11.11;65.52;100641.66;5030584;28;20183;-74
2021/04/01 01:22:48;;;;;;;4.07;3.77;;;;;;;11.03;66.18;100637.75;5030358;28;20184;-74
2021/04/01 01:25:14;;;;;;;4.03;3.37;;;;;;;11.20;66.26;100639.81;5030334;28;20623;-74
2021/04/01 01:27:39;;;;;;;3.27;3.07;;;;;;;11.23;66.39;100644.66;5030422;28;20172;-74
2021/04/01 01:30:10;;;;;;;3.43;3.10;;;;;;;10.85;66.52;100633.25;5031144;28;20720;-74
2021/04/01 01:32:38;;;;;;;3.60;3.30;;;;;;;10.78;67.16;100635.59;5033780;28;20160;-73
2021/04/01 01:35:14;;;;;;;4.53;3.70;;;;;;;10.78;66.39;100635.59;5034021;28;20607;-74
2021/04/01 01:37:57;;;;;;;2.97;2.63;;;;;;;11.00;67.90;100632.91;5034030;28;20524;-74
2021/04/01 01:40:25;;;;;;;3.60;3.30;;;;;;;11.14;67.54;100632.00;5033866;28;20176;-74
2021/04/01 01:42:51;;;;;;;3.60;3.30;;;;;;;11.14;67.99;100630.13;5033617;28;20650;-74
2021/04/01 01:45:18;;;;;;;3.47;3.17;;;;;;;11.17;67.39;100628.69;5034765;28;20172;-73
2021/04/01 01:47:44;;;;;;;3.53;3.20;;;;;;;11.10;66.76;100625.56;5034896;28;20179;-74
2021/04/01 01:50:11;;;;;;;3.53;3.23;;;;;;;10.70;67.11;100625.38;5034370;28;20212;-73
2021/04/01 01:52:38;;;;;;;4.50;4.10;;;;;;;10.73;67.74;100620.13;5033361;28;20238;-74
2021/04/01 01:55:05;;;;;;;3.43;2.93;;;;;;;10.64;68.31;100621.16;5033834;28;20187;-74
2021/04/01 01:57:32;;;;;;;4.43;3.93;;;;;;;10.53;68.62;100619.75;5033384;28;20168;-74
2021/04/01 01:59:57;;;;;;;4.50;4.10;;;;;;;10.81;68.58;100618.56;5033385;28;20695;-73
2021/04/01 02:02:23;;;;;;;4.07;3.67;;;;;;;11.01;68.22;100620.84;5033334;28;20230;-74
2021/04/01 02:04:48;;;;;;;3.97;3.67;;;;;;;11.11;66.90;100624.44;5033460;28;20172;-74
2021/04/01 02:07:13;;;;;;;3.87;3.00;;;;;;;11.06;67.01;100619.91;5032122;28;20184;-73
2021/04/01 02:09:45;;;;;;;3.73;3.43;;;;;;;10.99;67.50;100614.88;5033259;28;20283;-73
2021/04/01 02:12:13;;;;;;;2.80;2.60;;;;;;;10.91;66.97;100618.34;5033128;28;20525;-74
2021/04/01 02:14:38;;;;;;;3.07;2.77;;;;;;;10.88;67.03;100615.44;5032950;28;20175;-74
2021/04/01 02:17:04;;;;;;;4.20;3.83;;;;;;;10.88;67.20;100618.16;5032921;28;20202;-74
2021/04/01 02:19:30;;;;;;;3.47;3.27;;;;;;;10.92;67.95;100613.69;5032868;28;20222;-74
2021/04/01 02:21:55;;;;;;;3.03;2.83;;;;;;;10.97;68.33;100610.81;5032705;28;20569;-74
2021/04/01 02:24:21;;;;;;;4.33;3.73;;;;;;;11.04;68.35;100613.94;5032898;28;20188;-74
2021/04/01 02:26:53;;;;;;;4.47;3.83;;;;;;;11.06;67.39;100617.19;5032909;28;20199;-74
2021/04/01 02:29:18;;;;;;;4.37;3.30;;;;;;;10.86;68.21;100609.47;5032693;28;20199;-74
2021/04/01 02:31:43;;;;;;;3.70;3.40;;;;;;;10.99;68.65;100611.31;5032678;28;20182;-74
2021/04/01 02:34:09;;;;;;;3.47;2.90;;;;;;;11.08;68.05;100601.25;5032459;28;20184;-74
2021/04/01 02:36:34;;;;;;;4.60;4.20;;;;;;;11.14;68.52;100604.66;5032957;28;20627;-74
2021/04/01 02:38:59;;;;;;;4.60;4.20;;;;;;;11.18;68.35;100601.03;5032672;28;20170;-74
2021/04/01 02:41:25;;;;;;;4.07;3.77;;;;;;;11.16;67.42;100606.00;5031600;28;20571;-74
2021/04/01 02:43:50;;;;;;;5.50;4.73;;;;;;;11.09;68.25;100602.88;5032257;28;20190;-74
2021/04/01 02:46:15;;;;;;;5.93;3.27;;;;;;;11.03;68.19;100594.00;5032701;28;20172;-74
2021/04/01 02:48:41;;;;;;;4.00;3.60;;;;;;;11.03;68.25;100602.22;5032365;28;20246;-74
2021/04/01 02:51:06;;;;;;;4.90;3.60;;;;;;;10.97;66.62;100599.88;5032355;28;20172;-74
2021/04/01 02:53:32;;;;;;;3.87;3.47;;;;;;;10.97;67.31;100597.16;5032159;28;20657;-74
2021/04/01 02:55:57;;;;;;;3.20;3.00;;;;;;;10.95;67.76;100610.34;5032336;28;20179;-74
2021/04/01 02:58:23;;;;;;;3.93;3.63;;;;;;;10.96;68.57;100614.69;5032096;28;20183;-74
2021/04/01 03:00:49;;;;;;;3.23;2.93;;;;;;;10.79;67.90;100604.41;5032144;28;20171;-74
2021/04/01 03:03:19;;;;;;;3.40;3.20;;;;;;;10.95;68.40;100602.94;5030721;28;20541;-74
2021/04/01 03:05:45;;;;;;;4.70;3.47;;;;;;;11.06;67.72;100608.16;5032100;28;20174;-74
2021/04/01 03:08:10;;;;;;;3.57;3.27;;;;;;;11.11;67.96;100608.84;5032022;28;20176;-74
2021/04/01 03:10:36;;;;;;;4.07;3.67;;;;;;;11.06;68.31;100602.69;5032004;28;20754;-74
2021/04/01 03:13:01;;;;;;;3.77;3.47;;;;;;;10.94;68.63;100604.06;5030531;28;20171;-74
2021/04/01 03:15:27;;;;;;;4.07;3.77;;;;;;;10.91;67.92;100601.13;5031974;28;20765;-74
2021/04/01 03:17:52;;;;;;;3.17;2.87;;;;;;;10.94;68.21;100603.25;5031654;28;20178;-74
2021/04/01 03:20:18;;;;;;;3.60;3.30;;;;;;;10.95;68.11;100605.66;5031980;28;20181;-74
2021/04/01 03:22:43;;;;;;;3.20;2.90;;;;;;;10.94;67.50;100605.97;5031687;28;20310;-74
2021/04/01 03:25:11;;;;;;;3.10;2.80;;;;;;;10.91;67.45;100614.81;5032034;28;20172;-73
2021/04/01 03:27:37;;;;;;;4.17;3.77;;;;;;;10.89;68.23;100609.66;5031579;28;20176;-74
2021/04/01 03:30:11;;;;;;;3.87;3.50;;;;;;;10.86;68.37;100617.66;5031529;28;20560;-73
2021/04/01 03:32:46;;;;;;;3.67;3.37;;;;;;;10.83;68.48;100621.81;5031457;28;20810;-74
2021/04/01 03:35:18;;;;;;;3.93;3.57;;;;;;;10.68;69.88;100617.50;5030545;28;20183;-74
2021/04/01 03:37:45;;;;;;;3.73;3.10;;;;;;;10.63;69.07;100614.88;5031643;28;20184;-74
2021/04/01 03:40:11;;;;;;;4.03;3.63;;;;;;;10.56;70.83;100610.94;5030077;28;20176;-73
2021/04/01 03:42:38;;;;;;;3.27;3.03;;;;;;;10.44;70.86;100606.03;5031407;28;20180;-74
2021/04/01 03:45:10;;;;;;;4.40;4.00;;;;;;;10.38;70.18;100609.97;5031333;28;20267;-74
2021/04/01 03:47:36;;;;;;;4.40;4.03;;;;;;;10.46;70.63;100613.91;5031428;28;20203;-74
2021/04/01 03:50:03;;;;;;;3.93;3.60;;;;;;;10.50;70.80;100618.44;5029871;28;20203;-74
2021/04/01 03:52:30;;;;;;;3.83;3.53;;;;;;;10.53;70.66;100615.09;5030849;28;20701;-74
2021/04/01 03:55:00;;;;;;;3.33;3.13;;;;;;;10.51;69.30;100622.00;5031228;28;20168;-74
2021/04/01 03:57:25;;;;;;;6.50;3.90;;;;;;;10.59;69.40;100619.34;5031019;28;20262;-74
2021/04/01 04:13:27;;;;;;;3.50;3.20;;;;;;;10.69;68.29;100616.38;5030886;28;20171;-74
2021/04/01 04:15:52;;;;;;;4.57;4.17;;;;;;;11.02;65.59;100618.94;5030936;28;20172;-74
2021/04/01 04:18:18;;;;;;;6.27;3.60;;;;;;;11.45;62.70;100607.47;5029462;28;20190;-74
2021/04/01 04:20:44;;;;;;;4.40;4.00;;;;;;;11.58;62.72;100601.91;5030918;28;20218;-74
2021/04/01 04:23:12;;;;;;;5.83;3.77;;;;;;;11.78;61.32;100602.47;5031110;28;20172;-74
2021/04/01 04:25:38;;;;;;;4.23;3.83;;;;;;;11.45;64.34;100602.00;5030902;28;20194;-74
2021/04/01 04:30:38;;;;;;;4.20;3.70;;;;;;;10.63;68.63;100590.28;5030642;28;20237;-74
2021/04/01 04:33:04;;;;;;;3.43;3.13;;;;;;;10.62;68.77;100596.06;5030518;28;20179;-74
2021/04/01 04:35:29;;;;;;;4.17;3.77;;;;;;;10.40;69.27;100600.34;5030745;28;20182;-74
2021/04/01 04:37:55;;;;;;;3.83;3.53;;;;;;;10.66;69.53;100597.06;5030739;28;20190;-74
2021/04/01 04:40:20;;;;;;;3.80;3.43;;;;;;;10.61;69.34;100595.25;5030588;28;20206;-75
2021/04/01 04:42:46;;;;;;;3.63;3.37;;;;;;;10.51;69.17;100595.47;5030571;28;20191;-74
2021/04/01 04:45:14;;;;;;;5.13;4.73;;;;;;;10.51;69.74;100603.69;5030612;28;20187;-75
2021/04/01 04:47:39;;;;;;;3.77;3.47;;;;;;;10.76;68.90;100604.22;5030664;28;20709;-74
2021/04/01 04:50:06;;;;;;;4.00;3.50;;;;;;;11.02;65.74;100611.53;5030712;28;20235;-73
2021/04/01 04:52:34;;;;;;;5.70;5.20;;;;;;;11.71;60.51;100610.31;5030426;28;20195;-74
2021/04/01 04:55:01;;;;;;;5.17;4.17;;;;;;;12.19;58.71;100600.25;5030540;28;20266;-74
2021/04/01 04:57:51;;;;;;;7.13;4.03;;;;;;;12.42;57.69;100609.16;5030416;28;20200;-74
2021/04/01 05:05:28;;;;;;;4.37;3.63;;;;;;;12.82;56.10;100604.34;5032316;28;20221;-73
2021/04/01 05:07:53;;;;;;;4.53;4.10;;;;;;;12.86;56.00;100604.50;5034427;28;20220;-73
2021/04/01 05:10:19;;;;;;;4.10;3.57;;;;;;;12.85;56.35;100611.13;5032760;28;20211;-73
2021/04/01 05:12:51;;;;;;;5.33;4.33;;;;;;;12.78;56.94;100614.38;5034292;28;20176;-73
2021/04/01 05:15:17;;;;;;;3.90;3.50;;;;;;;12.75;57.08;100622.44;5034309;28;20542;-73
2021/04/01 05:17:43;;;;;;;3.47;3.17;;;;;;;12.82;56.33;100628.22;5034257;28;20230;-74
2021/04/01 05:20:09;;;;;;;4.07;3.70;;;;;;;12.96;55.38;100628.06;5034273;28;20185;-74
2021/04/01 05:22:39;;;;;;;6.40;5.07;;;;;;;13.04;55.16;100616.31;5033985;28;20175;-73
2021/04/01 05:25:06;;;;;;;7.43;5.27;;;;;;;13.20;53.87;100628.44;5034054;28;20172;-73
2021/04/01 05:27:43;;;;;;;5.93;4.33;;;;;;;13.19;54.48;100628.75;5034099;28;20176;-73
2021/04/01 05:30:09;;;;;;;10.17;5.77;;;;;;;13.16;55.20;100629.34;5033950;28;20207;-73
2021/04/01 05:32:37;;;;;;;7.73;5.27;;;;;;;13.22;54.58;100628.09;5033733;28;20180;-73
2021/04/01 05:35:07;;;;;;;3.87;3.57;;;;;;;13.29;54.29;100631.16;5034041;28;20160;-73
2021/04/01 05:37:32;;;;;;;3.40;3.20;;;;;;;13.36;53.05;100625.97;5033151;28;20659;-73
2021/04/01 05:39:59;;;;;;;6.50;4.60;;;;;;;13.41;53.06;100617.56;5033691;28;20168;-73
2021/04/01 05:42:25;;;;;;;5.20;4.40;;;;;;;13.40;53.27;100618.69;5033759;28;20187;-73
2021/04/01 05:44:58;;;;;;;7.23;5.10;;;;;;;13.40;53.64;100624.19;5033742;28;20178;-73
2021/04/01 06:05:52;;;;;;;6.17;5.57;;;;;;;14.05;51.05;100594.75;5033686;28;20202;-73
2021/04/01 06:08:23;;;;;;;5.87;5.07;;;;;;;14.02;50.89;100598.94;5033342;28;20190;-74
2021/04/01 06:10:50;;;;;;;5.03;4.53;;;;;;;13.80;53.97;100604.72;5033818;28;20511;-73
2021/04/01 06:13:17;;;;;;;10.93;5.93;;;;;;;13.80;52.45;100610.19;5035975;28;20183;-74
2021/04/01 06:15:48;;;;;;;8.73;6.20;;;;;;;13.86;51.82;100611.63;5034139;28;20211;-75
2021/04/01 06:18:16;;;;;;;5.63;5.10;;;;;;;13.97;50.39;100610.94;5032964;28;20180;-75
2021/04/01 06:20:47;;;;;;;5.50;4.20;;;;;;;13.95;51.14;100612.41;5032576;28;20582;-75
2021/04/01 06:23:37;;;;;;;5.77;5.27;;;;;;;13.96;51.00;100603.03;5029497;28;20171;-75
2021/04/01 06:26:11;;;;;;;7.83;6.23;;;;;;;13.93;51.13;100614.69;5031297;28;20175;-74
2021/04/01 06:28:48;;;;;;;5.37;4.87;;;;;;;13.84;51.23;100611.94;5032637;28;20195;-73
2021/04/01 06:31:19;;;;;;;6.00;5.10;;;;;;;13.87;51.73;100613.22;5031743;28;20183;-74
2021/04/01 06:33:50;;;;;;;7.87;6.13;;;;;;;13.87;51.62;100613.22;5031470;28;20180;-75
2021/04/01 06:36:21;;;;;;;7.37;5.13;;;;;;;13.91;51.35;100611.47;5032691;28;20176;-75
2021/04/01 06:38:47;;;;;;;6.90;6.17;;;;;;;13.94;52.27;100603.34;5032344;28;20639;-74
2021/04/01 06:41:31;;;;;;;6.50;5.20;;;;;;;13.96;52.57;100603.03;5031024;28;20366;-74
2021/04/01 06:43:57;;;;;;;6.30;5.47;;;;;;;14.05;51.93;100609.28;5032069;28;20310;-74
2021/04/01 06:46:31;;;;;;;6.07;5.53;;;;;;;14.09;51.40;100625.91;5032234;28;20255;-74
2021/04/01 06:51:55;;;;;;;6.37;5.77;;;;;;;14.08;53.35;100607.81;5032159;28;20172;-73
2021/04/01 07:00:10;;;;;;;6.23;5.73;;;;;;;13.29;60.30;100636.63;5031966;28;20262;-73
2021/04/01 07:04:37;;;;;;;4.97;4.57;;;;;;;12.91;61.32;100642.75;5031881;28;20631;-73
2021/04/01 07:07:08;;;;;;;5.77;5.23;;;;;;;12.77;62.27;100642.09;5031824;28;20168;-73
2021/04/01 07:09:56;;;;;;;6.40;4.90;;;;;;;12.56;63.38;100619.97;5031868;28;20207;-73
2021/04/01 07:12:28;;;;;;;4.70;4.37;;;;;;;12.57;60.73;100610.63;5031662;28;20585;-73
2021/04/01 07:14:57;;;;;;;6.20;4.60;;;;;;;12.81;57.92;100621.13;5031682;28;20358;-73
2021/04/01 07:17:31;;;;;;;5.77;5.27;;;;;;;13.04;58.04;100649.22;5031428;28;20518;-72
2021/04/01 07:45:42;;;;;;;5.83;5.33;;;;;;;13.11;63.19;100677.78;5011963;28;20184;-74
2021/04/01 07:48:01;;;;;;;7.60;6.80;;;;;;;13.22;62.44;100677.50;5011530;28;20184;-74
2021/04/01 07:50:37;;;;;;;8.13;5.87;;;;;;;13.33;62.36;100670.56;5026878;28;20199;-75
2021/04/01 07:53:03;;;;;;;6.70;5.60;;;;;;;13.43;63.13;100672.13;5031266;28;20175;-74
2021/04/01 08:01:15;;;;;;;5.90;5.37;;;;;;;13.74;61.71;100669.16;5009526;28;20183;-75
2021/04/01 08:06:26;;;;;;;6.60;5.30;;;;;;;14.07;61.75;100683.94;5031077;28;20167;-75
2021/04/01 08:09:12;;;;;;;7.47;6.30;;;;;;;14.11;61.96;100693.13;5031093;28;20191;-74
2021/04/01 08:11:48;;;;;;;10.10;7.20;;;;;;;14.16;61.68;100700.38;5031008;28;20164;-75
2021/04/01 08:14:32;;;;;;;8.63;7.73;;;;;;;14.24;61.98;100692.13;5031129;28;20182;-75
2021/04/01 08:17:12;;;;;;;10.93;7.87;;;;;;;14.30;60.93;100700.97;5031042;28;20226;-75
2021/04/01 08:19:39;;;;;;;10.30;9.40;;;;;;;14.42;61.79;100694.78;5030843;28;20168;-75
2021/04/01 08:22:12;;;;;;;9.30;8.37;;;;;;;14.48;56.49;100697.06;5029308;28;20237;-75
2021/04/01 08:24:46;;;;;;;17.57;10.33;;;;;;;14.30;57.22;100695.47;5031300;28;20174;-75
2021/04/01 08:27:30;;;;;;;9.33;8.20;;;;;;;14.24;56.89;100707.81;5030953;28;20197;-75
2021/04/01 08:33:03;;;;;;;10.43;9.40;;;;;;;14.18;58.29;100700.88;5030530;28;20305;-75
2021/04/01 08:35:30;;;;;;;13.90;12.50;;;;;;;14.14;58.71;100695.22;5030861;28;20465;-75
2021/04/01 08:38:10;;;;;;;12.20;10.90;;;;;;;14.14;58.50;100683.44;5030797;28;20655;-75
2021/04/01 08:40:41;;;;;;;15.77;11.57;;;;;;;14.17;58.36;100682.75;5031372;28;20179;-75
2021/04/01 08:43:09;;;;;;;15.63;9.93;;;;;;;14.36;56.07;100674.13;5034976;28;20172;-75
2021/04/01 08:45:34;;;;;;;13.40;11.40;;;;;;;14.41;57.02;100662.94;5034980;28;20559;-74
2021/04/01 08:48:33;;;;;;;18.63;12.13;;;;;;;14.40;55.83;100664.06;5034902;28;20164;-73
2021/04/01 08:51:08;;;;;;;14.43;9.37;;;;;;;14.39;54.53;100657.78;5034666;28;20651;-74
2021/04/01 08:53:33;;;;;;;17.27;9.20;;;;;;;14.52;54.82;100661.44;5034646;28;20186;-74
2021/04/01 08:56:25;;;;;;;14.17;11.53;;;;;;;14.50;53.05;100658.25;5034817;28;20640;-74
2021/04/01 08:59:01;;;;;;;15.90;11.67;;;;;;;14.53;53.23;100658.38;5033433;28;20270;-73
2021/04/01 09:01:29;;;;;;;16.90;11.33;;;;;;;14.60;52.60;100657.84;5034419;28;20213;-74
2021/04/01 09:03:59;;;;;;;12.87;11.57;;;;;;;14.70;51.98;100660.19;5033074;28;20172;-73
2021/04/01 09:06:27;;;;;;;16.07;12.00;;;;;;;14.81;52.41;100669.69;5034588;28;20176;-74
2021/04/01 09:09:09;;;;;;;14.40;12.23;;;;;;;14.92;51.28;100672.03;5034378;28;20192;-73
2021/04/01 09:11:47;;;;;;;16.13;9.67;;;;;;;14.84;50.43;100677.25;5034553;28;20611;-74
2021/04/01 09:14:25;;;;;;;14.03;9.97;;;;;;;14.78;50.48;100675.06;5034376;28;20148;-73
2021/04/01 09:17:21;;;;;;;16.37;11.80;;;;;;;14.71;50.18;100672.81;5034288;28;20175;-73
2021/04/01 09:19:47;;;;;;;14.53;10.83;;;;;;;14.93;52.12;100673.66;5033984;28;20180;-74
2021/04/01 09:22:26;;;;;;;13.70;10.73;;;;;;;15.18;50.11;100672.63;5034745;28;20160;-74
2021/04/01 09:24:59;;;;;;;20.33;12.17;;;;;;;15.13;48.49;100659.06;5034394;28;20191;-73
2021/04/01 09:27:24;;;;;;;17.80;13.10;;;;;;;15.14;49.32;100658.72;5034075;28;20172;-74
2021/04/01 09:30:09;;;;;;;23.40;12.40;;;;;;;15.13;49.01;100654.38;5034160;28;20258;-74
2021/04/01 09:32:37;;;;;;;21.00;13.97;;;;;;;15.29;50.35;100660.06;5033802;28;20723;-73
2021/04/01 09:35:04;;;;;;;19.17;13.43;;;;;;;15.29;47.44;100654.56;5033772;28;20179;-72
2021/04/01 09:37:29;;;;;;;14.87;12.50;;;;;;;15.42;48.40;100658.16;5034190;28;20178;-73
2021/04/01 09:40:07;;;;;;;13.70;8.60;;;;;;;15.56;47.16;100657.88;5034103;28;20531;-72
2021/04/01 09:42:46;;;;;;;20.43;13.50;;;;;;;15.72;47.93;100659.66;5032236;28;20556;-72
2021/04/01 09:45:13;;;;;;;14.47;11.80;;;;;;;15.80;48.09;100666.25;5013961;28;20167;-72
2021/04/01 09:47:49;;;;;;;19.17;11.93;;;;;;;16.02;47.80;100651.22;5023183;28;20180;-72
2021/04/01 09:50:15;;;;;;;21.67;13.23;;;;;;;15.95;45.91;100656.50;5033526;28;20199;-72
2021/04/01 09:52:41;;;;;;;12.70;11.33;;;;;;;15.96;45.31;100658.91;5033060;28;20226;-72
2021/04/01 09:55:12;;;;;;;23.33;14.53;;;;;;;16.09;46.26;100672.72;5032077;28;20180;-72
2021/04/01 09:57:46;;;;;;;21.00;13.90;;;;;;;16.33;46.01;100667.19;5033548;28;20168;-72
2021/04/01 10:03:22;;;;;;;24.53;16.13;;;;;;;16.42;44.40;100673.41;5033375;28;20204;-71
2021/04/01 10:05:49;;;;;;;24.47;17.20;;;;;;;16.51;45.34;100676.88;5033320;28;20168;-71
2021/04/01 10:08:24;;;;;;;17.27;11.10;;;;;;;16.61;44.65;100678.34;5033200;28;20182;-72
2021/04/01 10:10:52;;;;;;;14.13;10.43;;;;;;;16.41;43.96;100690.31;5033202;28;20187;-72
2021/04/01 10:13:20;;;;;;;20.33;14.57;;;;;;;16.45;44.92;100683.75;5033100;28;20657;-72
2021/04/01 10:15:46;;;;;;;14.67;12.07;;;;;;;16.31;44.98;100686.84;5032980;28;20754;-71
2021/04/01 10:18:15;;;;;;;27.43;14.53;;;;;;;16.44;45.70;100689.63;5033062;28;20172;-72
2021/04/01 10:20:44;;;;;;;16.50;11.40;;;;;;;16.56;45.04;100676.63;5032818;28;20225;-72
2021/04/01 10:23:10;;;;;;;17.33;13.03;;;;;;;16.43;45.73;100694.34;5032893;28;20194;-72
2021/04/01 10:25:47;;;;;;;16.17;14.03;;;;;;;16.32;46.45;100695.94;5032959;28;20285;-72
2021/04/01 10:28:36;;;;;;;15.70;10.57;;;;;;;16.17;46.32;100689.13;5032947;28;20156;-72
2021/04/01 10:31:16;;;;;;;20.67;14.87;;;;;;;16.20;47.60;100682.97;5032767;28;20263;-72
2021/04/01 10:33:53;;;;;;;13.80;12.47;;;;;;;16.38;48.08;100696.53;5032609;28;20183;-72
2021/04/01 10:36:26;;;;;;;26.37;14.73;;;;;;;16.39;48.52;100701.69;5032721;28;20168;-72
2021/04/01 10:38:56;;;;;;;23.07;11.93;;;;;;;16.23;46.48;100704.31;5032752;28;20416;-72
2021/04/01 10:41:25;;;;;;;11.93;10.23;;;;;;;16.06;47.19;100685.25;5032430;28;20605;-72
2021/04/01 10:43:57;;;;;;;22.57;13.50;;;;;;;16.06;46.74;100696.25;5032602;28;20226;-72
2021/04/01 10:46:23;;;;;;;15.03;12.83;;;;;;;16.03;46.70;100697.72;5032631;28;20179;-72
2021/04/01 10:48:54;;;;;;;19.47;12.77;;;;;;;16.20;47.21;100694.00;5031189;28;20581;-72
2021/04/01 10:51:22;;;;;;;11.60;9.77;;;;;;;16.27;45.60;100698.91;5032674;28;20156;-72
2021/04/01 10:53:48;;;;;;;16.97;13.67;;;;;;;16.44;47.47;100704.22;5032093;28;20179;-72
2021/04/01 10:56:15;;;;;;;20.77;14.23;;;;;;;16.48;48.17;100707.88;5032227;28;20744;-71
2021/04/01 10:58:56;;;;;;;19.47;12.20;;;;;;;16.28;46.87;100714.31;5032353;28;20210;-73
2021/04/01 11:01:43;;;;;;;21.90;11.73;;;;;;;16.19;49.04;100708.09;5032248;28;20604;-73
2021/04/01 11:04:14;;;;;;;19.93;11.53;;;;;;;16.33;47.58;100725.13;5031381;28;20221;-72
2021/04/01 11:06:41;;;;;;;23.57;12.70;;;;;;;16.39;47.82;100707.22;5032027;28;20189;-72
2021/04/01 11:09:09;;;;;;;16.60;10.83;;;;;;;16.29;47.53;100713.16;5032018;28;20203;-72
2021/04/01 11:12:05;;;;;;;21.70;12.80;;;;;;;16.37;48.13;100712.28;5030547;28;20187;-72
2021/04/01 11:14:32;;;;;;;22.93;13.83;;;;;;;16.47;47.26;100724.78;5031666;28;20450;-72
2021/04/01 11:16:59;;;;;;;22.00;14.13;;;;;;;16.40;48.25;100719.84;5031194;28;20175;-74
2021/04/01 11:19:27;;;;;;;23.03;14.53;;;;;;;16.54;48.37;100714.78;5031459;28;20206;-73
2021/04/01 11:21:54;;;;;;;20.60;13.43;;;;;;;16.52;47.96;100721.81;5031196;28;20215;-73
2021/04/01 11:24:34;;;;;;;17.80;14.00;;;;;;;16.61;47.95;100723.28;5031479;28;20624;-73
2021/04/01 11:27:13;;;;;;;17.33;14.20;;;;;;;16.53;47.67;100724.22;5031295;28;20172;-72
2021/04/01 11:29:41;;;;;;;18.87;14.03;;;;;;;16.55;48.44;100718.34;5031132;28;20243;-72
2021/04/01 11:32:15;;;;;;;20.90;14.40;;;;;;;16.57;49.11;100738.13;5031028;28;20374;-72
2021/04/01 11:34:43;;;;;;;16.50;11.20;;;;;;;16.46;47.45;100735.00;5029880;28;20194;-72
2021/04/01 11:37:10;;;;;;;14.17;10.83;;;;;;;16.48;48.78;100735.47;5030950;28;20172;-71
2021/04/01 11:39:40;;;;;;;23.33;13.00;;;;;;;16.55;49.80;100745.94;5031860;28;20176;-72
2021/04/01 11:42:10;;;;;;;17.83;12.33;;;;;;;16.24;49.47;100747.28;5030013;28;20184;-72
2021/04/01 11:44:37;;;;;;;16.23;10.73;;;;;;;16.17;49.42;100743.47;5031423;28;20270;-72
2021/04/01 11:47:16;;;;;;;24.93;14.07;;;;;;;16.01;50.70;100746.06;5031612;28;20180;-72
2021/04/01 11:49:43;;;;;;;16.47;13.33;;;;;;;15.94;51.77;100751.34;5031262;28;20286;-71
2021/04/01 11:52:11;;;;;;;18.83;13.13;;;;;;;15.95;51.12;100761.22;5031179;28;20294;-72
2021/04/01 11:54:37;;;;;;;18.90;14.07;;;;;;;15.98;51.36;100758.59;5031209;28;20180;-73
2021/04/01 11:57:14;;;;;;;11.03;9.77;;;;;;;15.95;51.83;100755.72;5031191;28;20589;-73
2021/04/01 11:59:41;;;;;;;17.10;12.23;;;;;;;15.90;53.00;100759.47;5031203;28;20179;-71
2021/04/01 12:02:09;;;;;;;15.20;11.90;;;;;;;16.09;53.32;100766.44;5031038;28;20634;-72
2021/04/01 12:04:37;;;;;;;17.17;12.13;;;;;;;15.97;54.07;100765.25;5031407;28;20172;-72
2021/04/01 12:07:05;;;;;;;9.50;7.67;;;;;;;16.08;55.06;100768.41;5031639;28;20183;-72
2021/04/01 12:09:30;;;;;;;11.43;10.30;;;;;;;16.02;56.00;100764.22;5031428;28;20208;-72
2021/04/01 12:11:55;;;;;;;13.93;11.53;;;;;;;16.21;56.21;100775.56;5033762;28;20184;-72
2021/04/01 12:14:37;;;;;;;14.07;9.70;;;;;;;16.13;56.53;100770.13;5031739;28;20689;-72
2021/04/01 12:17:05;;;;;;;10.03;7.17;;;;;;;16.39;56.42;100767.06;5031010;28;20230;-72
2021/04/01 12:19:32;;;;;;;4.90;4.50;;;;;;;16.16;55.60;100766.66;5030826;28;20203;-72
2021/04/01 12:21:57;;;;;;;5.03;4.63;;;;;;;16.03;57.23;100774.91;5029433;28;20548;-72
2021/04/01 12:24:24;;;;;;;6.97;5.90;;;;;;;16.03;58.20;100790.63;5030949;28;20187;-72
2021/04/01 12:26:50;;;;;;;6.73;5.67;;;;;;;15.92;56.52;100778.44;5030977;28;20182;-72
2021/04/01 12:29:17;;;;;;;5.37;4.87;;;;;;;15.72;56.51;100785.59;5030294;28;20294;-73
2021/04/01 12:31:48;;;;;;;4.63;4.23;;;;;;;15.86;56.76;100788.84;5029834;28;20183;-72
2021/04/01 12:34:31;;;;;;;3.27;2.97;;;;;;;15.78;55.54;100789.75;5029456;28;20213;-72
2021/04/01 12:36:59;;;;;;;3.03;2.00;;;;;;;15.25;57.02;100788.50;5029755;28;20176;-72
2021/04/01 12:39:34;;;;;;;2.27;1.97;;;;;;;14.96;57.87;100791.28;5028039;28;20187;-71
2021/04/01 12:42:00;;;;;;;5.97;2.07;;;;;;;15.12;56.95;100795.06;5029247;28;20226;-72
2021/04/01 12:44:37;;;;;;;2.10;1.93;;;;;;;15.29;57.01;100794.16;5028272;28;20180;-71
2021/04/01 12:47:03;;;;;;;1.47;1.37;;;;;;;15.48;56.01;100794.50;5029357;28;20172;-71
2021/04/01 12:49:32;;;;;;;0.93;0.60;;;;;;;15.57;55.68;100800.75;5030618;28;20290;-72
2021/04/01 12:52:02;;;;;;;1.10;1.00;;;;;;;15.65;55.51;100783.38;5029276;28;20206;-72
2021/04/01 12:54:31;;;;;;;0.97;0.97;;;;;;;15.60;56.30;100797.34;5037906;28;20179;-72
2021/04/01 12:57:02;;;;;;;2.47;1.20;;;;;;;15.44;55.58;100794.34;5032593;28;20176;-72
2021/04/01 12:59:38;;;;;;;2.03;1.33;;;;;;;15.40;55.61;100796.19;5033966;28;20266;-72